createdAt,value
2024-01-15T00:02:10.001Z,7.60
2024-01-15T00:04:41.603Z,7.05
2024-01-15T00:07:10.437Z,7.63
2024-01-15T00:09:38.213Z,6.57
2024-01-15T00:12:06.608Z,6.78
2024-01-15T00:14:34.360Z,6.40
2024-01-15T00:17:01.992Z,7.25
2024-01-15T00:19:29.727Z,6.97
2024-01-15T00:21:58.500Z,6.68
2024-01-15T00:24:26.425Z,7.28
2024-01-15T00:26:55.240Z,7.53
2024-01-15T00:29:23.057Z,8.13
2024-01-15T00:31:50.822Z,7.65
2024-01-15T00:34:18.560Z,7.93
2024-01-15T00:36:46.352Z,7.47
2024-01-15T00:39:13.946Z,7.50
2024-01-15T00:41:41.670Z,7.68
2024-01-15T00:44:09.227Z,7.57
2024-01-15T00:46:47.491Z,8.75
2024-01-15T00:49:15.698Z,8.23
2024-01-15T00:51:43.590Z,7.57
2024-01-15T00:54:11.456Z,7.72
2024-01-15T00:56:39.083Z,8.07
2024-01-15T00:59:07.111Z,8.48
2024-01-15T01:01:34.869Z,8.32
2024-01-15T01:04:02.779Z,8.73
2024-01-15T01:06:33.435Z,9.00
2024-01-15T01:09:01.884Z,8.93
2024-01-15T01:11:29.518Z,9.95
2024-01-15T01:13:58.028Z,9.48
2024-01-15T01:16:25.539Z,9.02
2024-01-15T01:18:53.696Z,9.07
2024-01-15T01:21:21.498Z,10.20
2024-01-15T01:23:49.197Z,10.10
2024-01-15T01:26:18.403Z,9.07
2024-01-15T01:28:46.078Z,9.63
2024-01-15T01:31:13.888Z,9.45
2024-01-15T01:33:41.993Z,8.90
2024-01-15T01:36:11.070Z,9.05
2024-01-15T01:38:39.605Z,9.65
2024-01-15T01:41:07.206Z,9.15
2024-01-15T01:43:34.955Z,9.30
2024-01-15T01:46:04.465Z,8.77
2024-01-15T01:48:33.517Z,8.82
2024-01-15T01:51:05.303Z,9.00
2024-01-15T01:53:36.253Z,9.23
2024-01-15T01:56:04.452Z,8.68
2024-01-15T01:58:33.776Z,8.63
2024-01-15T02:01:01.677Z,8.55
2024-01-15T02:03:29.939Z,7.90
2024-01-15T02:05:58.303Z,9.13
2024-01-15T02:08:26.852Z,9.25
2024-01-15T02:10:54.712Z,8.45
2024-01-15T02:13:22.290Z,8.52
2024-01-15T02:15:50.172Z,8.35
2024-01-15T02:18:17.965Z,8.80
2024-01-15T02:20:45.842Z,11.65
2024-01-15T02:23:15.411Z,9.10
2024-01-15T02:25:48.093Z,8.32
2024-01-15T02:28:18.051Z,9.03
2024-01-15T02:30:46.273Z,9.07
2024-01-15T02:33:14.861Z,9.38
2024-01-15T02:35:42.755Z,9.18
2024-01-15T02:38:10.464Z,8.95
2024-01-15T02:40:38.165Z,9.10
2024-01-15T02:43:05.703Z,9.32
2024-01-15T02:45:33.377Z,9.30
2024-01-15T02:48:01.050Z,9.60
2024-01-15T02:50:28.666Z,9.48
2024-01-15T02:52:56.201Z,10.43
2024-01-15T02:55:23.954Z,9.25
2024-01-15T02:57:51.624Z,9.77
2024-01-15T03:00:19.542Z,10.93
2024-01-15T03:02:48.854Z,9.07
2024-01-15T03:05:17.128Z,9.90
2024-01-15T03:07:44.946Z,9.43
2024-01-15T03:10:12.632Z,11.07
2024-01-15T03:12:40.256Z,9.52
2024-01-15T03:15:08.121Z,9.65
2024-01-15T03:17:35.852Z,10.50
2024-01-15T03:20:04.599Z,13.82
2024-01-15T03:22:32.284Z,10.52
2024-01-15T03:25:00.018Z,10.23
2024-01-15T03:27:27.731Z,10.00
2024-01-15T03:29:55.453Z,9.43
2024-01-15T03:32:23.102Z,9.63
2024-01-15T03:34:51.002Z,10.88
2024-01-15T03:37:18.555Z,10.93
2024-01-15T03:39:46.378Z,9.30
2024-01-15T03:42:15.647Z,10.65
2024-01-15T03:44:43.310Z,10.93
2024-01-15T03:47:10.870Z,10.52
2024-01-15T03:49:38.667Z,11.23
2024-01-15T03:52:06.552Z,14.52
2024-01-15T03:54:34.278Z,27.85
2024-01-15T03:57:01.784Z,15.10
2024-01-15T03:59:29.450Z,11.52
2024-01-15T04:01:57.118Z,10.50
2024-01-15T04:04:24.982Z,10.90
2024-01-15T04:06:52.707Z,10.73
2024-01-15T04:09:20.384Z,11.25
2024-01-15T04:11:47.940Z,11.55
2024-01-15T04:14:15.541Z,10.98
2024-01-15T04:16:43.074Z,10.55
2024-01-15T04:19:10.909Z,12.48
2024-01-15T04:21:38.673Z,10.70
2024-01-15T04:24:06.588Z,10.73
2024-01-15T04:26:34.182Z,11.05
2024-01-15T04:29:01.970Z,11.18
2024-01-15T04:31:29.732Z,16.02
2024-01-15T04:33:57.786Z,13.40
2024-01-15T04:36:25.531Z,15.05
2024-01-15T04:38:53.179Z,13.07
2024-01-15T04:41:21.027Z,10.95
2024-01-15T04:43:48.668Z,11.40
2024-01-15T04:46:16.443Z,11.68
2024-01-15T04:48:44.266Z,11.30
2024-01-15T04:51:12.109Z,10.70
2024-01-15T04:53:39.784Z,10.80
2024-01-15T04:56:07.472Z,11.50
2024-01-15T04:58:35.192Z,10.32
2024-01-15T05:01:03.056Z,12.30
2024-01-15T05:03:31.193Z,11.40
2024-01-15T05:05:58.905Z,11.43
2024-01-15T05:08:28.057Z,10.90
2024-01-15T05:10:55.707Z,11.00
2024-01-15T05:13:23.372Z,11.48
2024-01-15T05:15:51.058Z,11.98
2024-01-15T05:18:19.143Z,11.13
2024-01-15T05:20:47.097Z,12.00
2024-01-15T05:23:14.910Z,10.68
2024-01-15T05:25:42.458Z,11.57
2024-01-15T05:28:10.185Z,10.73
2024-01-15T05:30:37.838Z,10.52
2024-01-15T05:33:06.025Z,11.48
2024-01-15T05:35:33.688Z,10.82
2024-01-15T05:38:01.392Z,12.18
2024-01-15T05:40:29.042Z,12.20
2024-01-15T05:42:56.830Z,10.18
2024-01-15T05:45:24.605Z,10.57
2024-01-15T05:47:52.491Z,11.20
2024-01-15T05:50:20.217Z,10.77
2024-01-15T05:52:47.965Z,10.77
2024-01-15T05:55:15.610Z,10.90
2024-01-15T05:57:43.398Z,11.02
2024-01-15T06:00:11.598Z,10.00
2024-01-15T06:02:40.764Z,10.82
2024-01-15T06:05:08.760Z,10.02
2024-01-15T06:07:37.447Z,10.65
2024-01-15T06:10:08.080Z,10.90
2024-01-15T06:12:35.847Z,10.77
2024-01-15T06:15:03.909Z,9.93
2024-01-15T06:17:32.843Z,10.45
2024-01-15T06:20:00.621Z,10.20
2024-01-15T06:22:28.492Z,9.68
2024-01-15T06:24:56.844Z,10.65
2024-01-15T06:27:24.521Z,10.40
2024-01-15T06:29:52.205Z,10.77
2024-01-15T06:32:19.921Z,10.77
2024-01-15T06:34:47.709Z,10.02
2024-01-15T06:37:15.571Z,9.45
2024-01-15T06:39:43.235Z,10.02
2024-01-15T06:42:11.031Z,9.18
2024-01-15T06:44:38.625Z,9.85
2024-01-15T06:47:06.933Z,8.52
2024-01-15T06:49:34.705Z,9.68
2024-01-15T06:52:02.502Z,10.18
2024-01-15T06:54:30.765Z,9.13
2024-01-15T06:56:58.547Z,8.70
2024-01-15T06:59:26.337Z,8.57
2024-01-15T07:01:54.221Z,9.77
2024-01-15T07:04:22.003Z,8.52
2024-01-15T07:06:49.948Z,9.07
2024-01-15T07:09:18.130Z,8.88
2024-01-15T07:11:47.959Z,8.73
2024-01-15T07:14:15.742Z,9.25
2024-01-15T07:16:46.185Z,7.50
2024-01-15T07:19:15.922Z,8.52
2024-01-15T07:21:44.650Z,8.68
2024-01-15T07:24:12.727Z,7.88
2024-01-15T07:26:40.853Z,8.50
2024-01-15T07:29:08.657Z,7.07
2024-01-15T07:31:36.437Z,8.18
2024-01-15T07:34:04.222Z,7.95
2024-01-15T07:36:31.948Z,8.25
2024-01-15T07:38:59.668Z,6.93
2024-01-15T07:41:27.249Z,8.07
2024-01-15T07:43:55.030Z,7.82
2024-01-15T07:46:22.835Z,8.32
2024-01-15T07:48:53.032Z,7.85
2024-01-15T07:51:20.837Z,7.68
2024-01-15T07:53:48.626Z,7.38
2024-01-15T07:56:16.355Z,8.40
2024-01-15T07:58:43.908Z,8.07
2024-01-15T08:01:11.945Z,7.22
2024-01-15T08:03:39.814Z,7.85
2024-01-15T08:06:07.809Z,8.27
2024-01-15T08:08:35.526Z,7.00
2024-01-15T08:11:03.205Z,7.75
2024-01-15T08:13:32.089Z,9.00
2024-01-15T08:16:00.249Z,7.53
2024-01-15T08:18:28.140Z,7.40
2024-01-15T08:20:56.021Z,7.15
2024-01-15T08:23:23.750Z,6.95
2024-01-15T08:25:52.237Z,7.35
2024-01-15T08:28:19.884Z,6.85
2024-01-15T08:30:48.148Z,6.97
2024-01-15T08:33:21.868Z,8.40
2024-01-15T08:35:50.405Z,8.48
2024-01-15T08:38:18.174Z,8.52
2024-01-15T08:40:45.986Z,7.07
2024-01-15T08:43:13.674Z,6.93
2024-01-15T08:45:41.780Z,7.07
2024-01-15T08:48:09.687Z,6.78
2024-01-15T08:50:37.466Z,6.13
2024-01-15T08:53:05.782Z,7.38
2024-01-15T08:55:34.218Z,6.25
2024-01-15T08:58:01.918Z,7.25
2024-01-15T09:00:29.941Z,6.53
2024-01-15T09:02:58.066Z,6.43
2024-01-15T09:05:26.166Z,5.57
2024-01-15T09:07:53.922Z,5.82
2024-01-15T09:10:21.836Z,6.05
2024-01-15T09:12:50.805Z,6.18
2024-01-15T09:15:18.997Z,5.47
2024-01-15T09:17:47.498Z,5.50
2024-01-15T09:20:15.934Z,5.28
2024-01-15T09:22:43.905Z,5.47
2024-01-15T09:25:11.836Z,5.53
2024-01-15T09:27:39.719Z,6.07
2024-01-15T09:30:08.191Z,5.95
2024-01-15T09:32:36.034Z,5.35
2024-01-15T09:35:04.106Z,5.30
2024-01-15T09:37:41.855Z,5.25
2024-01-15T09:40:18.752Z,5.25
2024-01-15T09:42:47.732Z,5.35
2024-01-15T09:45:16.428Z,5.93
2024-01-15T09:47:46.175Z,4.85
2024-01-15T09:50:16.741Z,5.15
2024-01-15T09:52:46.427Z,5.00
2024-01-15T09:55:16.707Z,5.20
2024-01-15T09:57:47.447Z,5.20
2024-01-15T10:00:18.899Z,4.60
2024-01-15T10:02:47.128Z,4.60
2024-01-15T10:05:15.377Z,4.95
2024-01-15T10:07:44.263Z,4.80
2024-01-15T10:10:13.124Z,4.93
2024-01-15T10:12:41.041Z,4.70
2024-01-15T10:15:12.301Z,4.85
2024-01-15T10:17:41.237Z,5.07
2024-01-15T10:20:13.850Z,4.50
2024-01-15T10:22:43.980Z,4.55
2024-01-15T10:25:12.417Z,4.47
2024-01-15T10:27:41.471Z,4.90
2024-01-15T10:30:11.390Z,5.00
2024-01-15T10:32:39.241Z,4.65
2024-01-15T10:35:08.860Z,4.60
2024-01-15T10:37:36.615Z,5.20
2024-01-15T10:40:06.561Z,4.65
2024-01-15T10:42:34.473Z,4.88
2024-01-15T10:45:02.692Z,5.15
2024-01-15T10:47:32.231Z,5.07
2024-01-15T10:50:01.389Z,5.82
2024-01-15T10:52:31.451Z,4.55
2024-01-15T10:55:03.843Z,5.10
2024-01-15T10:57:35.955Z,4.60
2024-01-15T11:00:06.869Z,4.70
2024-01-15T11:02:37.521Z,4.38
2024-01-15T11:05:05.715Z,4.63
2024-01-15T11:07:34.259Z,4.32
2024-01-15T11:10:05.114Z,5.25
2024-01-15T11:12:34.158Z,5.10
2024-01-15T11:15:06.056Z,4.20
2024-01-15T11:18:05.093Z,4.45
2024-01-15T11:20:34.021Z,4.40
2024-01-15T11:23:01.689Z,4.57
2024-01-15T11:25:38.906Z,4.03
2024-01-15T11:28:06.876Z,4.50
2024-01-15T11:30:37.685Z,4.82
2024-01-15T11:33:08.972Z,4.60
2024-01-15T11:35:52.245Z,5.32
2024-01-15T11:38:31.000Z,4.70
2024-01-15T11:41:01.075Z,4.60
2024-01-15T11:43:33.003Z,5.03
2024-01-15T11:46:04.248Z,4.70
2024-01-15T11:48:43.715Z,4.50
2024-01-15T11:51:13.833Z,4.40
2024-01-15T11:53:46.873Z,4.82
2024-01-15T11:56:18.311Z,4.50
2024-01-15T11:58:46.549Z,4.45
2024-01-15T12:01:14.720Z,4.13
2024-01-15T12:03:42.588Z,5.43
2024-01-15T12:06:11.737Z,4.40
2024-01-15T12:08:39.606Z,4.25
2024-01-15T12:11:12.348Z,4.63
2024-01-15T12:13:40.372Z,4.72
2024-01-15T12:16:08.140Z,4.25
2024-01-15T12:18:36.187Z,4.32
2024-01-15T12:21:05.686Z,5.35
2024-01-15T12:23:35.010Z,4.93
2024-01-15T12:26:02.848Z,4.70
2024-01-15T12:28:30.949Z,4.50
2024-01-15T12:31:00.664Z,5.20
2024-01-15T12:33:29.462Z,5.22
2024-01-15T12:35:57.400Z,4.60
2024-01-15T12:38:25.109Z,4.82
2024-01-15T12:40:52.778Z,5.55
2024-01-15T12:43:21.352Z,4.82
2024-01-15T12:45:49.163Z,5.28
2024-01-15T12:48:19.571Z,5.40
2024-01-15T12:50:49.175Z,5.95
2024-01-15T12:53:17.572Z,5.13
2024-01-15T12:55:45.321Z,5.38
2024-01-15T12:58:13.301Z,5.38
2024-01-15T13:00:41.352Z,5.60
2024-01-15T13:03:09.127Z,6.03
2024-01-15T13:05:37.990Z,6.30
2024-01-15T13:08:06.349Z,5.78
2024-01-15T13:10:34.329Z,7.47
2024-01-15T13:13:02.198Z,6.65
2024-01-15T13:15:30.054Z,6.60
2024-01-15T13:17:57.835Z,6.32
2024-01-15T13:20:25.722Z,6.05
2024-01-15T13:22:53.742Z,6.28
2024-01-15T13:25:22.487Z,7.18
2024-01-15T13:27:50.944Z,6.55
2024-01-15T13:30:18.979Z,6.53
2024-01-15T13:32:47.072Z,7.53
2024-01-15T13:35:15.093Z,7.00
2024-01-15T13:37:42.998Z,7.03
2024-01-15T13:40:11.416Z,7.15
2024-01-15T13:42:42.004Z,6.75
2024-01-15T13:45:10.149Z,6.85
2024-01-15T13:47:39.134Z,6.93
2024-01-15T13:50:08.465Z,7.35
2024-01-15T13:52:36.390Z,8.15
2024-01-15T13:55:04.405Z,6.88
2024-01-15T13:57:32.171Z,6.38
2024-01-15T13:59:59.923Z,8.60
2024-01-15T14:02:27.990Z,6.75
2024-01-15T14:04:55.821Z,8.38
2024-01-15T14:07:24.501Z,11.13
2024-01-15T14:09:52.506Z,7.20
2024-01-15T14:12:20.290Z,5.93
2024-01-15T14:14:49.290Z,6.80
2024-01-15T14:17:17.023Z,6.45
2024-01-15T14:19:44.783Z,5.90
2024-01-15T14:22:12.563Z,6.03
2024-01-15T14:24:40.529Z,6.15
2024-01-15T14:27:08.569Z,6.70
2024-01-15T14:29:37.221Z,6.47
2024-01-15T14:32:05.420Z,6.10
2024-01-15T14:34:33.505Z,4.88
2024-01-15T14:37:01.559Z,5.18
2024-01-15T14:39:29.564Z,6.00
2024-01-15T14:41:58.298Z,5.18
2024-01-15T14:44:26.126Z,5.05
2024-01-15T14:46:53.927Z,5.80
2024-01-15T14:49:21.899Z,6.35
2024-01-15T14:51:50.994Z,5.80
2024-01-15T14:54:20.007Z,6.10
2024-01-15T14:56:48.891Z,6.35
2024-01-15T14:59:16.626Z,6.30
2024-01-15T15:01:44.915Z,6.25
2024-01-15T15:04:12.817Z,8.25
2024-01-15T15:06:41.087Z,22.67
2024-01-15T15:09:11.362Z,11.95
2024-01-15T15:11:39.305Z,8.35
2024-01-15T15:14:07.103Z,6.60
2024-01-15T15:16:35.321Z,6.97
2024-01-15T15:19:03.338Z,6.20
2024-01-15T15:21:31.654Z,6.50
2024-01-15T15:23:59.341Z,6.32
2024-01-15T15:26:27.591Z,7.18
2024-01-15T15:28:55.581Z,6.82
2024-01-15T15:31:23.678Z,7.70
2024-01-15T15:33:51.806Z,7.63
2024-01-15T15:36:20.486Z,7.03
2024-01-15T15:38:48.464Z,6.85
2024-01-15T15:41:18.459Z,7.57
2024-01-15T15:43:46.382Z,7.85
2024-01-15T15:46:14.139Z,6.95
2024-01-15T15:48:42.249Z,7.25
2024-01-15T15:51:10.641Z,7.45
2024-01-15T15:53:39.145Z,6.90
2024-01-15T15:56:07.776Z,7.85
2024-01-15T16:03:14.689Z,7.07
2024-01-15T16:05:49.734Z,7.05
2024-01-15T16:08:21.769Z,8.00
2024-01-15T16:10:51.921Z,7.28
2024-01-15T16:13:20.563Z,7.80
2024-01-15T16:15:49.106Z,7.40
2024-01-15T16:23:20.219Z,7.93
2024-01-15T16:23:34.962Z,7.60
2024-01-15T16:24:12.471Z,8.50
2024-01-15T16:26:43.486Z,8.82
2024-01-15T16:29:11.416Z,8.77
2024-01-15T16:31:39.758Z,10.82
2024-01-15T16:34:09.724Z,10.13
2024-01-15T16:36:39.604Z,10.75
2024-01-15T16:39:07.266Z,10.57
2024-01-15T16:41:34.981Z,10.02
2024-01-15T16:44:02.719Z,8.88
2024-01-15T16:46:30.298Z,9.50
2024-01-15T16:48:58.054Z,8.60
2024-01-15T16:51:25.728Z,8.80
2024-01-15T16:53:53.221Z,9.38
2024-01-15T16:56:21.584Z,10.43
2024-01-15T16:58:49.051Z,9.60
2024-01-15T17:01:16.673Z,9.32
2024-01-15T17:03:44.517Z,9.07
2024-01-15T17:06:12.176Z,10.25
2024-01-15T17:08:39.848Z,10.13
2024-01-15T17:11:07.558Z,10.02
2024-01-15T17:13:35.559Z,10.23
2024-01-15T17:16:04.322Z,9.52
2024-01-15T17:18:31.938Z,8.77
2024-01-15T17:20:59.755Z,9.18
2024-01-15T17:23:27.327Z,9.07
2024-01-15T17:25:55.060Z,8.73
2024-01-15T17:28:24.544Z,8.20
2024-01-15T17:30:52.414Z,9.10
2024-01-15T17:33:20.731Z,8.52
2024-01-15T17:35:58.381Z,7.90
2024-01-15T17:38:26.212Z,7.88
2024-01-15T17:40:53.695Z,7.70
2024-01-15T17:43:21.757Z,7.45
2024-01-15T17:45:50.133Z,6.80
2024-01-15T17:50:47.647Z,7.53
2024-01-15T17:53:15.306Z,7.82
2024-01-15T17:55:43.587Z,7.97
2024-01-15T17:58:11.414Z,8.98
2024-01-15T18:00:38.990Z,10.73
2024-01-15T18:03:06.727Z,8.68
2024-01-15T18:05:34.523Z,9.50
2024-01-15T18:08:02.945Z,9.27
2024-01-15T18:10:30.553Z,8.52
2024-01-15T18:12:58.278Z,9.68
2024-01-15T18:15:25.877Z,8.57
2024-01-15T18:17:54.502Z,8.40
2024-01-15T18:20:22.352Z,9.00
2024-01-15T18:22:51.670Z,9.02
2024-01-15T18:25:20.029Z,8.95
2024-01-15T18:27:47.692Z,9.52
2024-01-15T18:30:15.607Z,9.05
2024-01-15T18:32:43.324Z,9.05
2024-01-15T18:35:10.997Z,9.00
2024-01-15T18:37:38.568Z,9.20
2024-01-15T18:40:07.780Z,8.52
2024-01-15T18:42:35.821Z,8.07
2024-01-15T18:45:03.404Z,8.48
2024-01-15T18:47:31.501Z,9.30
2024-01-15T18:49:59.122Z,8.25
2024-01-15T18:52:27.568Z,7.97
2024-01-15T18:54:55.103Z,8.63
2024-01-15T18:57:22.664Z,9.15
2024-01-15T18:59:50.344Z,8.15
2024-01-15T19:02:17.961Z,8.15
2024-01-15T19:04:45.668Z,8.93
2024-01-15T19:07:13.334Z,8.82
2024-01-15T19:09:40.935Z,11.30
2024-01-15T19:12:08.624Z,12.07
2024-01-15T19:14:36.255Z,10.13
2024-01-15T19:17:06.033Z,10.50
2024-01-15T19:19:38.285Z,10.35
2024-01-15T19:22:06.294Z,10.15
2024-01-15T19:24:33.806Z,9.20
2024-01-15T19:27:01.422Z,7.15
2024-01-15T19:29:29.432Z,7.57
2024-01-15T19:31:59.648Z,6.80
2024-01-15T19:34:27.707Z,6.70
2024-01-15T19:36:55.394Z,6.70
2024-01-15T19:39:24.372Z,7.00
2024-01-15T19:41:52.244Z,6.57
2024-01-15T19:44:19.800Z,6.93
2024-01-15T19:46:48.585Z,7.43
2024-01-15T19:49:16.276Z,7.95
2024-01-15T19:51:44.736Z,7.53
2024-01-15T19:54:12.421Z,7.93
2024-01-15T19:56:40.110Z,8.18
2024-01-15T19:59:07.879Z,8.35
2024-01-15T20:01:35.479Z,8.23
2024-01-15T20:04:05.031Z,8.25
2024-01-15T20:06:32.964Z,7.78
2024-01-15T20:09:00.711Z,7.50
2024-01-15T20:11:28.353Z,7.50
2024-01-15T20:13:55.944Z,9.35
2024-01-15T20:16:25.399Z,9.73
2024-01-15T20:18:53.278Z,8.05
2024-01-15T20:21:20.889Z,13.38
2024-01-15T20:23:55.305Z,8.52
2024-01-15T20:26:26.623Z,8.10
2024-01-15T20:28:55.679Z,6.80
2024-01-15T20:31:23.326Z,6.75
2024-01-15T20:33:51.624Z,6.05
2024-01-15T20:36:19.358Z,6.60
2024-01-15T20:38:47.287Z,6.32
2024-01-15T20:41:17.538Z,6.72
2024-01-15T20:43:45.450Z,6.88
2024-01-15T20:46:13.203Z,6.82
2024-01-15T20:48:41.020Z,8.50
2024-01-15T20:51:11.733Z,7.10
2024-01-15T20:53:43.028Z,6.13
2024-01-15T20:56:11.500Z,6.82
2024-01-15T20:58:39.192Z,6.90
2024-01-15T21:01:07.688Z,7.28
2024-01-15T21:03:36.390Z,6.40
2024-01-15T21:06:04.618Z,8.15
2024-01-15T21:08:32.418Z,5.80
2024-01-15T21:11:01.200Z,6.53
2024-01-15T21:13:28.796Z,6.15
2024-01-15T21:15:56.360Z,6.55
2024-01-15T21:18:25.475Z,6.50
2024-01-15T21:20:53.161Z,5.97
2024-01-15T21:23:20.713Z,5.90
2024-01-15T21:25:48.394Z,5.78
2024-01-15T21:28:15.861Z,6.13
2024-01-15T21:30:43.567Z,6.25
2024-01-15T21:33:12.528Z,5.95
2024-01-15T21:35:40.782Z,4.70
2024-01-15T21:38:08.375Z,4.97
2024-01-15T21:40:35.998Z,4.38
2024-01-15T21:43:03.664Z,4.43
2024-01-15T21:45:31.582Z,4.10
2024-01-15T21:47:59.236Z,4.03
2024-01-15T21:50:27.016Z,4.22
2024-01-15T21:52:54.564Z,4.13
2024-01-15T21:55:22.202Z,3.88
2024-01-15T21:57:49.735Z,3.92
2024-01-15T22:00:17.900Z,4.10
2024-01-15T22:02:46.804Z,4.88
2024-01-15T22:05:14.935Z,3.92
2024-01-15T22:07:43.427Z,3.83
2024-01-15T22:10:11.761Z,3.50
2024-01-15T22:12:39.301Z,3.30
2024-01-15T22:15:07.436Z,3.03
2024-01-15T22:17:35.009Z,3.22
2024-01-15T22:20:02.755Z,2.20
2024-01-15T22:22:30.360Z,2.13
2024-01-15T22:24:57.887Z,2.00
2024-01-15T22:27:25.487Z,2.30
2024-01-15T22:29:54.782Z,2.28
2024-01-15T22:32:23.744Z,2.22
2024-01-15T22:34:51.474Z,3.50
2024-01-15T22:37:19.070Z,3.58
2024-01-15T22:39:46.710Z,4.20
2024-01-15T22:42:14.354Z,4.13
2024-01-15T22:44:42.148Z,3.67
2024-01-15T22:47:09.752Z,3.88
2024-01-15T22:49:37.292Z,4.60
2024-01-15T22:52:05.307Z,3.50
2024-01-15T22:54:32.789Z,3.42
2024-01-15T22:57:00.451Z,3.83
2024-01-15T22:59:27.995Z,3.67
2024-01-15T23:01:55.535Z,4.15
2024-01-15T23:04:23.177Z,3.53
2024-01-15T23:06:50.739Z,3.83
2024-01-15T23:09:18.984Z,2.95
2024-01-15T23:11:49.549Z,4.30
2024-01-15T23:14:17.446Z,2.88
2024-01-15T23:16:45.043Z,2.95
2024-01-15T23:19:12.662Z,3.20
2024-01-15T23:21:40.281Z,2.65
2024-01-15T23:24:09.073Z,2.83
2024-01-15T23:26:36.623Z,2.90
2024-01-15T23:29:04.805Z,2.83
2024-01-15T23:31:32.380Z,2.83
2024-01-15T23:34:00.155Z,2.13
2024-01-15T23:36:27.755Z,2.35
2024-01-15T23:38:55.442Z,2.25
2024-01-15T23:41:23.094Z,2.20
2024-01-15T23:43:50.796Z,2.38
2024-01-15T23:46:20.002Z,2.22
2024-01-15T23:48:48.163Z,2.63
2024-01-15T23:51:15.754Z,2.72
2024-01-15T23:53:43.553Z,3.03
2024-01-15T23:56:13.888Z,2.50
2024-01-15T23:58:41.910Z,2.30
